Airfield :
LOGIN :

Register | Disclaimer

   EN    FR    IT 

 










Legend :    VFR   Marginal VFR   IFR   Intensive IFR   Very Intensive IFR
Visi :
Ceiling :
>= 8 km
>= 3000ft
5 to 8 km
1000 to 3000 ft
1500m to 5 km
500 to 1000 ft
800 to 1500m
200 to 500 ft
< 800m
< 200 ft
Symbols :   Thunderstorms  Fog  Heavy snow  Heavy precipitations  Wind > 20 kt
SIGMETs :     Misc.  Thunderstorms  Icing  Turbulence  Mountain Waves  Volcanic Ashes







- Airport Elevation : 22 ft
- IATA code : LDY
- Download approach charts


EGAE - Londonderry Eglington

CURRENT METAR :
  • 141450Z 24007KT 9999 FEW022 SCT037 07/04 Q0985

EXPIRED METARs :
  • 141420Z 26005KT 220V300 9999 FEW025 07/05 Q0985
  • 141350Z 26005KT 9999 FEW022 SCT030 06/04 Q0985
  • 141320Z 28005KT 9999 FEW016 SCT030 05/04 Q0984
  • 141250Z 30007KT 9999 VCSH FEW009 SCT020 05/04 Q0984
  • 141220Z 30006KT 9999 VCSH FEW010 SCT020 05/04 Q0983
  • 141150Z 25007KT 9999 VCSH FEW008 SCT019 05/04 Q0983

TAF TAF EGAE
Valid from the 14 at 15:00 until the 14 at 21:00 UTC


141406Z 1415/1421 29013KT 9999 FEW015 SCT030
BECMG 1415/1418 31020G33KT
PROB30
TEMPO 1415/1421 5000 SHRA BKN014
No reported NOTAMs for that airfield.



MET'MAP, your aeronautical weather chart ! - Copyright ORBIFLY December 2007 - Disclaimer

ORBIFLY MET'MAP TEAM :

Programming & Development : Alexandra Zaïnal
Concept & Development : Baudouin d'Aumeries
Co-Development & Prog : Marc-Olivier Méhu
Technical & hardware support : Manuel Goepfert

Contact : metmap@orbifly.com




SOURCES & CREDITS :

   NOAA